createdAt,value
2022-08-10T00:00:15.291Z,0.92
2022-08-10T00:01:13.166Z,0.45
2022-08-10T00:02:12.812Z,0.45
2022-08-10T00:03:10.125Z,1.27
2022-08-10T00:04:23.703Z,1.26
2022-08-10T00:05:07.436Z,1.26
2022-08-10T00:06:16.888Z,1.25
2022-08-10T00:07:15.854Z,0.88
2022-08-10T00:08:26.011Z,0.89
2022-08-10T00:09:15.925Z,0.89
2022-08-10T00:10:14.323Z,0.82
2022-08-10T00:11:17.242Z,0.71
2022-08-10T00:12:17.712Z,0.71
2022-08-10T00:13:08.870Z,1.05
2022-08-10T00:14:12.031Z,1.05
2022-08-10T00:15:55.787Z,0.85
2022-08-10T00:16:13.414Z,0.98
2022-08-10T00:17:13.836Z,0.98
2022-08-10T00:18:34.497Z,0.98
2022-08-10T00:19:11.888Z,0.98
2022-08-10T00:20:11.791Z,0.76
2022-08-10T00:21:07.638Z,0.76
2022-08-10T00:22:19.159Z,0.76
2022-08-10T00:23:10.166Z,1.04
2022-08-10T00:24:13.602Z,1.04
2022-08-10T00:25:13.155Z,0.95
2022-08-10T00:26:13.104Z,0.51
2022-08-10T00:28:04.311Z,0.61
2022-08-10T00:28:15.899Z,0.61
2022-08-10T00:29:14.062Z,0.82
2022-08-10T00:30:16.961Z,0.78
2022-08-10T00:31:13.149Z,1.25
2022-08-10T00:32:14.182Z,0.76
2022-08-10T00:33:12.103Z,1.37
2022-08-10T00:34:14.561Z,1.37
2022-08-10T00:35:09.950Z,1.37
2022-08-10T00:36:13.164Z,0.94
2022-08-10T00:37:13.900Z,1
2022-08-10T00:38:15.566Z,1
2022-08-10T00:39:18.060Z,0.87
2022-08-10T00:40:11.267Z,0.83
2022-08-10T00:41:19.024Z,1.12
2022-08-10T00:42:13.038Z,1.12
2022-08-10T00:43:13.940Z,1.11
2022-08-10T00:44:13.075Z,0.7
2022-08-10T00:45:13.602Z,0.7
2022-08-10T00:46:12.452Z,0.58
2022-08-10T00:47:38.408Z,1.56
2022-08-10T00:48:11.376Z,0.71
2022-08-10T00:49:14.003Z,0.71
2022-08-10T00:50:16.677Z,0.89
2022-08-10T00:51:08.982Z,1.37
2022-08-10T00:52:17.775Z,1.37
2022-08-10T00:53:14.878Z,0.91
2022-08-10T00:54:26.280Z,0.91
2022-08-10T00:55:11.496Z,0.81
2022-08-10T00:57:18.843Z,0.81
2022-08-10T00:57:20.389Z,1.21
2022-08-10T00:58:15.709Z,1.21
2022-08-10T00:59:12.812Z,1.21
2022-08-10T01:00:12.797Z,0.8
2022-08-10T01:02:11.599Z,0.8
2022-08-10T01:02:17.692Z,0.75
2022-08-10T01:03:12.086Z,0.75
2022-08-10T01:05:02.584Z,0.75
2022-08-10T01:05:11.226Z,0.69
2022-08-10T01:06:17.406Z,0.67
2022-08-10T01:07:15.282Z,1.03
2022-08-10T01:08:13.905Z,1.03
2022-08-10T01:09:12.724Z,1.03
2022-08-10T01:10:09.095Z,0.82
2022-08-10T01:12:41.685Z,0.75
2022-08-10T01:12:49.868Z,1.04
2022-08-10T01:13:11.287Z,0.75
2022-08-10T01:14:16.966Z,0.94
2022-08-10T01:15:12.994Z,0.88
2022-08-10T01:16:16.175Z,0.88
2022-08-10T01:17:11.687Z,1.26
2022-08-10T01:18:14.140Z,1.26
2022-08-10T01:19:10.718Z,1.3
2022-08-10T01:20:32.593Z,0.91
2022-08-10T01:21:06.122Z,0.91
2022-08-10T01:22:12.886Z,0.82
2022-08-10T01:23:13.796Z,0.51
2022-08-10T01:24:15.762Z,1.17
2022-08-10T01:25:12.291Z,1.17
2022-08-10T01:26:32.855Z,1.17
2022-08-10T01:27:14.481Z,1.05
2022-08-10T01:28:10.244Z,0.78
2022-08-10T01:29:04.681Z,1.22
2022-08-10T01:30:16.429Z,1.22
2022-08-10T01:31:14.379Z,0.74
2022-08-10T01:32:14.113Z,0.74
2022-08-10T01:33:14.827Z,1.02
2022-08-10T01:34:12.974Z,1.05
2022-08-10T01:35:15.759Z,1.05
2022-08-10T01:36:17.396Z,1.75
2022-08-10T01:37:09.750Z,1.75
2022-08-10T01:38:15.191Z,0.96
2022-08-10T01:39:31.197Z,0.96
2022-08-10T01:40:06.444Z,0.96
2022-08-10T01:41:16.169Z,0.72
2022-08-10T01:42:14.180Z,0.96
2022-08-10T01:43:12.503Z,1.09
2022-08-10T01:44:15.431Z,0.91
2022-08-10T01:45:11.594Z,1.02
2022-08-10T01:46:14.039Z,1.02
2022-08-10T01:47:14.201Z,1.14
2022-08-10T01:48:18.780Z,1.14
2022-08-10T01:49:16.370Z,0.7
2022-08-10T01:50:15.658Z,0.7
2022-08-10T01:51:12.045Z,0.7
2022-08-10T01:52:20.125Z,1.02
2022-08-10T01:53:11.441Z,1.02
2022-08-10T01:54:15.651Z,1.04
2022-08-10T01:55:12.443Z,1.1
2022-08-10T01:56:14.083Z,1.04
2022-08-10T01:57:09.511Z,1.04
2022-08-10T01:58:14.967Z,1.01
2022-08-10T01:59:13.306Z,0.88
2022-08-10T02:00:13.512Z,0.88
2022-08-10T02:01:19.321Z,1.34
2022-08-10T02:02:15.804Z,1.19
2022-08-10T02:03:17.106Z,1.02
2022-08-10T02:04:11.777Z,1.02
2022-08-10T02:05:05.477Z,1.02
2022-08-10T02:06:12.340Z,1.04
2022-08-10T02:07:16.134Z,1.04
2022-08-10T02:08:12.520Z,0.78
2022-08-10T02:09:17.262Z,0.98
2022-08-10T02:10:15.715Z,0.98
2022-08-10T02:11:14.977Z,0.98
2022-08-10T02:12:14.483Z,1.28
2022-08-10T02:13:11.264Z,1.22
2022-08-10T02:14:16.429Z,0.97
2022-08-10T02:15:12.906Z,0.97
2022-08-10T02:16:14.727Z,1.19
2022-08-10T02:18:02.412Z,1.08
2022-08-10T02:18:04.986Z,1.08
2022-08-10T02:19:19.739Z,0.91
2022-08-10T02:20:15.883Z,0.91
2022-08-10T02:21:18.381Z,0.86
2022-08-10T02:22:48.374Z,0.97
2022-08-10T02:23:12.364Z,0.97
2022-08-10T02:24:15.613Z,1.66
2022-08-10T02:25:45.159Z,0.81
2022-08-10T02:26:13.111Z,0.88
2022-08-10T02:27:14.202Z,1.18
2022-08-10T02:28:29.930Z,0.92
2022-08-10T02:29:09.453Z,0.79
2022-08-10T02:30:17.393Z,1.28
2022-08-10T02:31:13.785Z,1.28
2022-08-10T02:32:05.969Z,1.1
2022-08-10T02:33:10.388Z,0.96
2022-08-10T02:34:17.355Z,1.31
2022-08-10T02:35:24.364Z,0.78
2022-08-10T02:36:14.859Z,1.29
2022-08-10T02:37:15.572Z,1.29
2022-08-10T02:38:05.249Z,1.29
2022-08-10T02:39:14.471Z,0.84
2022-08-10T02:45:28.588Z,0.89
2022-08-10T02:45:30.675Z,0.89
2022-08-10T02:45:30.693Z,0.85
2022-08-10T02:45:31.597Z,1.14
2022-08-10T02:45:32.195Z,0.93
2022-08-10T02:46:22.975Z,1.78
2022-08-10T02:47:14.404Z,1.08
2022-08-10T02:48:18.111Z,1.34
2022-08-10T02:49:15.074Z,1.04
2022-08-10T02:50:05.846Z,1.04
2022-08-10T02:51:13.784Z,0.71
2022-08-10T02:52:15.792Z,0.71
2022-08-10T02:53:58.964Z,0.71
2022-08-10T02:54:14.944Z,0.81
2022-08-10T02:55:20.483Z,0.95
2022-08-10T02:56:15.826Z,0.91
2022-08-10T02:57:14.537Z,0.91
2022-08-10T02:58:19.934Z,0.73
2022-08-10T02:59:11.745Z,1.05
2022-08-10T03:00:12.278Z,0.78
2022-08-10T03:01:15.420Z,1.2
2022-08-10T03:02:16.651Z,1.07
2022-08-10T03:03:08.272Z,1.07
2022-08-10T03:04:09.392Z,1.01
2022-08-10T03:05:13.372Z,1.15
2022-08-10T03:06:12.868Z,0.99
2022-08-10T03:07:14.764Z,1.09
2022-08-10T03:08:13.210Z,1.09
2022-08-10T03:09:17.382Z,0.63
2022-08-10T03:10:16.570Z,0.72
2022-08-10T03:11:12.920Z,1.08
2022-08-10T03:12:39.013Z,1.08
2022-08-10T03:13:10.819Z,1.24
2022-08-10T03:14:15.733Z,1.08
2022-08-10T03:15:18.345Z,1.02
2022-08-10T03:16:09.051Z,1.02
2022-08-10T03:17:13.432Z,1.35
2022-08-10T03:18:13.779Z,1.35
2022-08-10T03:20:40.178Z,1.06
2022-08-10T03:20:40.713Z,1.06
2022-08-10T03:21:13.990Z,0.82
2022-08-10T03:22:13.797Z,0.82
2022-08-10T03:23:12.165Z,1.18
2022-08-10T03:24:33.359Z,1.18
2022-08-10T03:25:12.150Z,0.74
2022-08-10T03:26:11.275Z,1.24
2022-08-10T03:27:10.967Z,1.02
2022-08-10T03:28:10.373Z,0.96
2022-08-10T03:29:12.818Z,0.96
2022-08-10T03:30:35.055Z,1.27
2022-08-10T03:31:11.777Z,1.18
2022-08-10T03:32:16.777Z,0.85
2022-08-10T03:33:14.911Z,1.1
2022-08-10T03:34:34.915Z,1.35
2022-08-10T03:35:10.654Z,1.35
2022-08-10T03:36:46.402Z,1.35
2022-08-10T03:37:11.851Z,1.35
2022-08-10T03:38:12.597Z,1.02
2022-08-10T03:39:25.138Z,1.02
2022-08-10T03:40:04.903Z,1.12
2022-08-10T03:41:18.244Z,1.32
2022-08-10T03:42:17.707Z,1.32
2022-08-10T03:43:14.321Z,0.99
2022-08-10T03:44:16.388Z,1.09
2022-08-10T03:45:12.435Z,1.21
2022-08-10T03:46:18.777Z,1.21
2022-08-10T03:47:18.626Z,1.21
2022-08-10T03:48:13.548Z,1.33
2022-08-10T03:49:09.889Z,1.26
2022-08-10T03:50:51.722Z,1.26
2022-08-10T03:51:15.482Z,1.02
2022-08-10T03:52:14.576Z,1.36
2022-08-10T03:54:07.154Z,0.98
2022-08-10T03:54:14.245Z,1.38
2022-08-10T03:56:31.743Z,1.38
2022-08-10T03:56:33.102Z,1.15
2022-08-10T03:57:13.350Z,1.39
2022-08-10T03:58:12.325Z,0.99
2022-08-10T03:59:14.372Z,0.99
2022-08-10T04:00:14.490Z,1.58
2022-08-10T04:01:08.961Z,1.41
2022-08-10T04:02:48.250Z,1.82
2022-08-10T04:03:12.119Z,1.82
2022-08-10T04:04:26.273Z,0.92
2022-08-10T04:05:15.621Z,1.48
2022-08-10T04:06:14.820Z,1.48
2022-08-10T04:07:13.894Z,1.34
2022-08-10T04:08:12.360Z,1.34
2022-08-10T04:09:17.854Z,1.03
2022-08-10T04:10:15.089Z,0.86
2022-08-10T04:11:10.498Z,0.86
2022-08-10T04:12:14.667Z,1.31
2022-08-10T04:13:18.241Z,1.65
2022-08-10T04:14:53.051Z,1.16
2022-08-10T04:15:11.549Z,1.24
2022-08-10T04:16:14.277Z,1.09
2022-08-10T04:17:16.153Z,1.29
2022-08-10T04:18:11.851Z,1.39
2022-08-10T04:19:11.696Z,1.35
2022-08-10T04:20:16.974Z,1.35
2022-08-10T04:21:08.935Z,1.31
2022-08-10T04:22:13.554Z,1.31
2022-08-10T04:23:09.690Z,1.05
2022-08-10T04:24:29.068Z,1.35
2022-08-10T04:25:16.586Z,1.67
2022-08-10T04:26:05.671Z,1.67
2022-08-10T04:27:15.894Z,0.98
2022-08-10T04:28:13.746Z,1
2022-08-10T04:29:11.879Z,1
2022-08-10T04:30:14.430Z,0.88
2022-08-10T04:31:14.163Z,0.88
2022-08-10T04:32:16.762Z,1.34
2022-08-10T04:33:12.338Z,1.34
2022-08-10T04:34:13.026Z,1.34
2022-08-10T04:35:13.349Z,1.76
2022-08-10T04:36:13.490Z,1.34
2022-08-10T04:37:11.434Z,1.34
2022-08-10T04:38:15.556Z,1.23
2022-08-10T04:39:14.786Z,1.23
2022-08-10T04:40:31.429Z,1.14
2022-08-10T04:41:13.540Z,1.14
2022-08-10T04:42:15.297Z,0.85
2022-08-10T04:43:15.566Z,1.26
2022-08-10T04:44:14.726Z,1.16
2022-08-10T04:45:14.459Z,1.25
2022-08-10T04:46:59.668Z,1.17
2022-08-10T04:47:13.032Z,1.48
2022-08-10T04:49:01.802Z,1.48
2022-08-10T04:49:57.006Z,1.16
2022-08-10T04:50:11.892Z,1.16
2022-08-10T04:51:21.322Z,1.34
2022-08-10T04:52:06.131Z,1.34
2022-08-10T04:53:14.091Z,1.67
2022-08-10T04:54:18.009Z,1.67
2022-08-10T04:55:12.118Z,1.67
2022-08-10T04:56:16.350Z,1.24
2022-08-10T04:57:17.689Z,1.42
2022-08-10T04:58:13.853Z,1.42
2022-08-10T04:59:28.175Z,1.13
2022-08-10T05:00:17.113Z,1.05
2022-08-10T05:01:16.046Z,1.32
2022-08-10T05:02:34.024Z,1.07
2022-08-10T05:03:13.001Z,1.07
2022-08-10T05:04:40.508Z,1.07
2022-08-10T05:05:15.719Z,1.64
2022-08-10T05:06:05.025Z,1.64
2022-08-10T05:07:18.891Z,1.09
2022-08-10T05:08:15.372Z,1.09
2022-08-10T05:09:17.653Z,1.79
2022-08-10T05:10:15.089Z,1.79
2022-08-10T05:11:26.064Z,1.05
2022-08-10T05:12:13.654Z,0.96
2022-08-10T05:13:04.979Z,0.84
2022-08-10T05:14:11.713Z,1.94
2022-08-10T05:15:15.574Z,1.25
2022-08-10T05:16:32.837Z,1.25
2022-08-10T05:17:14.646Z,1.43
2022-08-10T05:18:13.462Z,1.5
2022-08-10T05:19:14.831Z,1.04
2022-08-10T05:20:12.960Z,1.04
2022-08-10T05:22:05.484Z,1.24
2022-08-10T05:22:12.230Z,1.07
2022-08-10T05:23:14.639Z,1.07
2022-08-10T05:24:15.331Z,1.32
2022-08-10T05:25:20.355Z,1.32
2022-08-10T05:26:05.515Z,1.32
2022-08-10T05:27:17.604Z,0.88
2022-08-10T05:28:15.762Z,0.74
2022-08-10T05:29:16.022Z,0.74
2022-08-10T05:30:12.864Z,1.35
2022-08-10T05:31:25.957Z,0.95
2022-08-10T05:32:12.779Z,1.12
2022-08-10T05:33:16.999Z,1.12
2022-08-10T05:34:23.039Z,1.13
2022-08-10T05:35:13.478Z,1.13
2022-08-10T05:36:13.269Z,1.29
2022-08-10T05:38:14.729Z,1.29
2022-08-10T05:38:16.897Z,1.07
2022-08-10T05:39:16.756Z,1.09
2022-08-10T05:40:10.103Z,1.09
2022-08-10T05:41:14.278Z,1.44
2022-08-10T05:42:16.020Z,1.41
2022-08-10T05:43:16.820Z,1.41
2022-08-10T05:44:12.681Z,1.41
2022-08-10T05:45:13.151Z,1.45
2022-08-10T05:46:22.001Z,0.91
2022-08-10T05:47:14.915Z,0.91
2022-08-10T05:49:01.678Z,1.74
2022-08-10T05:49:13.416Z,1.31
2022-08-10T05:50:10.087Z,1.14
2022-08-10T05:51:13.935Z,1.49
2022-08-10T05:52:13.789Z,1.28
2022-08-10T05:54:06.433Z,1.28
2022-08-10T05:54:11.648Z,0.9
2022-08-10T05:55:13.099Z,0.9
2022-08-10T05:56:14.201Z,1.29
2022-08-10T05:57:11.290Z,1.29
2022-08-10T05:58:13.358Z,1.29
2022-08-10T05:59:16.318Z,1.07
2022-08-10T06:00:45.985Z,0.89
2022-08-10T06:01:09.995Z,0.89
2022-08-10T06:02:36.648Z,1.03
2022-08-10T06:03:10.421Z,1.03
2022-08-10T06:04:14.389Z,1.34
2022-08-10T06:05:12.563Z,1.49
2022-08-10T06:06:15.554Z,0.81
2022-08-10T06:07:18.042Z,0.81
2022-08-10T06:08:15.794Z,1.34
2022-08-10T06:09:15.350Z,1.34
2022-08-10T06:10:12.604Z,1.34
2022-08-10T06:12:53.323Z,1.23
2022-08-10T06:12:54.561Z,1.36
2022-08-10T06:13:31.089Z,1.15
2022-08-10T06:14:16.251Z,0.91
2022-08-10T06:15:21.300Z,0.91
2022-08-10T06:16:14.978Z,1.09
2022-08-10T06:17:11.291Z,1.09
2022-08-10T06:18:11.065Z,1.09
2022-08-10T06:19:16.577Z,1.25
2022-08-10T06:20:20.103Z,1.17
2022-08-10T06:21:14.897Z,1.17
2022-08-10T06:22:12.976Z,1.23
2022-08-10T06:23:14.524Z,0.84
2022-08-10T06:24:11.438Z,0.84
2022-08-10T06:26:13.950Z,0.99
2022-08-10T06:26:18.497Z,1.26
2022-08-10T06:27:12.949Z,1.22
2022-08-10T06:28:17.976Z,1.22
2022-08-10T06:29:14.978Z,0.74
2022-08-10T06:30:23.051Z,0.74
2022-08-10T06:31:12.107Z,1.19
2022-08-10T06:32:14.839Z,1.44
2022-08-10T06:33:14.611Z,0.98
2022-08-10T06:34:12.254Z,0.89
2022-08-10T06:35:14.248Z,1.09
2022-08-10T06:36:10.866Z,0.82
2022-08-10T06:37:13.683Z,0.76
2022-08-10T06:38:16.692Z,0.76
2022-08-10T06:39:36.282Z,1.11
2022-08-10T06:40:08.316Z,1.11
2022-08-10T06:41:21.553Z,1.08
2022-08-10T06:42:18.946Z,0.77
2022-08-10T06:43:10.055Z,0.77
2022-08-10T06:44:12.798Z,1.06
2022-08-10T06:45:08.753Z,1.06
2022-08-10T06:46:15.833Z,0.73
2022-08-10T06:47:14.943Z,0.73
2022-08-10T06:48:13.451Z,0.73
2022-08-10T06:49:17.737Z,1.08
2022-08-10T06:50:12.739Z,0.78
2022-08-10T06:51:13.925Z,0.78
2022-08-10T06:52:20.450Z,0.76
2022-08-10T06:53:15.840Z,0.76
2022-08-10T06:54:10.820Z,1.05
2022-08-10T06:55:13.268Z,0.77
2022-08-10T06:56:10.440Z,0.85
2022-08-10T06:57:21.156Z,0.85
2022-08-10T06:58:14.157Z,1.06
2022-08-10T06:59:26.623Z,0.68
2022-08-10T07:00:06.883Z,0.68
2022-08-10T07:01:16.012Z,1.1
2022-08-10T07:02:19.729Z,1.1
2022-08-10T07:03:12.848Z,1.1
2022-08-10T07:04:09.194Z,0.81
2022-08-10T07:05:11.248Z,0.82
2022-08-10T07:06:13.371Z,0.75
2022-08-10T07:07:17.249Z,0.98
2022-08-10T07:08:10.687Z,0.69
2022-08-10T07:09:20.349Z,0.86
2022-08-10T07:10:07.277Z,1.42
2022-08-10T07:11:13.557Z,1.42
2022-08-10T07:12:16.293Z,0.41
2022-08-10T07:13:12.460Z,0.78
2022-08-10T07:14:19.782Z,0.78
2022-08-10T07:15:14.831Z,0.83
2022-08-10T07:16:15.371Z,1.21
2022-08-10T07:17:18.317Z,0.94
2022-08-10T07:18:13.470Z,0.94
2022-08-10T07:19:24.135Z,0.59
2022-08-10T07:20:06.558Z,0.59
2022-08-10T07:21:14.220Z,1.33
2022-08-10T07:24:00.367Z,0.83
2022-08-10T07:24:02.123Z,0.78
2022-08-10T07:24:18.602Z,0.78
2022-08-10T07:25:09.568Z,0.78
2022-08-10T07:26:36.299Z,0.78
2022-08-10T07:27:05.081Z,0.58
2022-08-10T07:28:14.670Z,0.99
2022-08-10T07:29:54.939Z,0.99
2022-08-10T07:30:14.303Z,0.99
2022-08-10T07:31:57.774Z,0.61
2022-08-10T07:32:15.014Z,0.61
2022-08-10T07:33:14.787Z,0.61
2022-08-10T07:34:12.732Z,0.84
2022-08-10T07:35:12.836Z,0.95
2022-08-10T07:36:13.519Z,0.95
2022-08-10T07:37:13.185Z,2.04
2022-08-10T07:38:16.554Z,0.99
2022-08-10T07:39:14.169Z,0.71
2022-08-10T07:40:16.318Z,0.71
2022-08-10T07:41:19.315Z,0.93
2022-08-10T07:42:19.242Z,1.44
2022-08-10T07:43:10.210Z,0.8
2022-08-10T07:44:04.887Z,0.71
2022-08-10T07:45:18.173Z,0.81
2022-08-10T07:46:16.457Z,1.02
2022-08-10T07:47:16.270Z,1.02
2022-08-10T07:48:11.882Z,0.81
2022-08-10T07:49:21.432Z,0.81
2022-08-10T07:50:13.939Z,0.74
2022-08-10T07:51:14.201Z,0.96
2022-08-10T07:52:14.192Z,0.96
2022-08-10T07:53:14.317Z,0.96
2022-08-10T07:54:16.751Z,0.67
2022-08-10T07:55:12.454Z,0.67
2022-08-10T07:57:11.385Z,0.52
2022-08-10T07:58:12.111Z,0.84
2022-08-10T07:59:13.758Z,0.84
2022-08-10T08:00:15.773Z,1.88
2022-08-10T08:01:16.642Z,1.88
2022-08-10T08:02:14.485Z,0.92
2022-08-10T08:03:13.278Z,0.77
2022-08-10T08:04:15.125Z,0.77
2022-08-10T08:05:12.650Z,0.94
2022-08-10T08:06:14.333Z,0.94
2022-08-10T08:07:17.348Z,0.6
2022-08-10T08:08:11.167Z,0.6
2022-08-10T08:09:14.205Z,0.83
2022-08-10T08:10:09.003Z,0.83
2022-08-10T08:11:28.395Z,0.58
2022-08-10T08:12:15.638Z,0.71
2022-08-10T08:13:14.024Z,0.71
2022-08-10T08:14:14.367Z,0.79
2022-08-10T08:16:21.898Z,0.79
2022-08-10T08:16:23.290Z,0.66
2022-08-10T08:17:12.623Z,0.66
2022-08-10T08:18:12.958Z,0.95
2022-08-10T08:19:40.985Z,0.85
2022-08-10T08:20:18.463Z,0.85
2022-08-10T08:24:03.928Z,0.75
2022-08-10T08:24:30.712Z,0.71
2022-08-10T08:24:32.036Z,0.48
2022-08-10T08:24:34.979Z,0.48
2022-08-10T08:25:16.755Z,1.4
2022-08-10T08:26:17.537Z,0.68
2022-08-10T08:27:13.302Z,0.68
2022-08-10T08:28:19.334Z,0.7
2022-08-10T08:29:14.020Z,0.7
2022-08-10T08:30:13.742Z,0.59
2022-08-10T08:31:13.000Z,0.96
2022-08-10T08:32:13.660Z,0.92
2022-08-10T08:33:43.267Z,0.87
2022-08-10T08:34:10.868Z,0.87
2022-08-10T08:35:15.534Z,0.87
2022-08-10T08:36:12.169Z,1.24
2022-08-10T08:38:34.830Z,0.84
2022-08-10T08:38:35.847Z,0.84
2022-08-10T08:39:13.629Z,0.59
2022-08-10T08:40:13.858Z,0.71
2022-08-10T08:41:15.538Z,0.71
2022-08-10T08:44:13.843Z,0.96
2022-08-10T08:45:14.946Z,0.96
2022-08-10T12:12:19.142Z,0.48
2022-08-10T12:13:13.052Z,0.81
2022-08-10T12:14:30.176Z,0.56
2022-08-10T12:15:17.477Z,0.56
2022-08-10T12:16:12.021Z,0.56
2022-08-10T12:17:11.864Z,0.44
2022-08-10T12:18:14.659Z,0.59
2022-08-10T12:19:15.956Z,0.64
2022-08-10T12:20:13.666Z,0.61
2022-08-10T12:21:24.165Z,0.92
2022-08-10T12:22:10.001Z,0.92
2022-08-10T12:23:14.816Z,0.64
2022-08-10T12:24:12.734Z,0.28
2022-08-10T12:25:10.567Z,0.28
2022-08-10T12:26:15.794Z,0.72
2022-08-10T12:27:15.635Z,0.28
2022-08-10T12:28:09.948Z,0.55
2022-08-10T12:29:11.636Z,0.55
2022-08-10T12:30:16.380Z,0.56
2022-08-10T12:31:10.900Z,0.56
2022-08-10T12:32:13.183Z,0.59
2022-08-10T12:33:12.954Z,0.38
2022-08-10T12:34:13.418Z,0.37
2022-08-10T12:35:10.820Z,0.41
2022-08-10T12:36:20.632Z,0.41
2022-08-10T12:37:15.057Z,0.57
2022-08-10T12:38:13.547Z,0.57
2022-08-10T12:39:19.395Z,0.41
2022-08-10T12:40:37.239Z,0.41
2022-08-10T12:41:14.080Z,0.36
2022-08-10T12:42:10.923Z,0.68
2022-08-10T12:44:08.927Z,0.68
2022-08-10T12:45:12.713Z,0.5
2022-08-10T12:46:13.983Z,0.72
2022-08-10T12:47:16.804Z,0.72
2022-08-10T12:48:12.285Z,0.71
2022-08-10T12:49:12.580Z,0.71
2022-08-10T12:50:34.134Z,0.85
2022-08-10T12:51:10.680Z,0.41
2022-08-10T12:52:09.358Z,0.71
2022-08-10T12:53:14.199Z,0.55
2022-08-10T12:54:12.041Z,0.49
2022-08-10T12:55:15.237Z,0.49
2022-08-10T12:56:12.072Z,0.44
2022-08-10T12:57:16.364Z,0.44
2022-08-10T12:59:02.666Z,0.28
2022-08-10T12:59:14.273Z,0.42
2022-08-10T13:00:19.515Z,0.42
2022-08-10T13:01:19.919Z,0.39
2022-08-10T13:02:12.936Z,0.51
2022-08-10T13:03:11.324Z,0.51
2022-08-10T13:04:25.896Z,0.42
2022-08-10T13:05:15.339Z,1.21
2022-08-10T13:06:13.305Z,0.48
2022-08-10T13:08:29.149Z,0.48
2022-08-10T13:08:29.706Z,0.65
2022-08-10T13:09:16.287Z,0.62
2022-08-10T13:10:13.848Z,0.62
2022-08-10T13:12:40.222Z,0.35
2022-08-10T13:12:40.838Z,0.35
2022-08-10T13:13:13.273Z,0.51
2022-08-10T13:14:16.298Z,0.51
2022-08-10T13:15:51.325Z,0.34
2022-08-10T13:16:18.652Z,0.54
2022-08-10T13:17:07.624Z,0.54
2022-08-10T13:18:06.205Z,0.95
2022-08-10T13:19:17.883Z,0.46
2022-08-10T13:20:16.514Z,0.52
2022-08-10T13:21:22.367Z,0.52
2022-08-10T13:22:13.207Z,0.65
2022-08-10T13:23:11.610Z,0.65
2022-08-10T13:24:18.268Z,0.61
2022-08-10T13:25:16.547Z,0.6
2022-08-10T13:26:14.536Z,0.6
2022-08-10T13:28:36.812Z,0.45
2022-08-10T13:28:39.522Z,0.45
2022-08-10T13:29:15.212Z,0.43
2022-08-10T13:30:15.446Z,0.43
2022-08-10T13:31:19.270Z,1.84
2022-08-10T13:32:13.904Z,1.84
2022-08-10T13:33:13.746Z,0.42
2022-08-10T13:34:46.677Z,0.42
2022-08-10T13:35:13.202Z,0.28
2022-08-10T13:36:15.354Z,0.69
2022-08-10T13:37:10.323Z,0.36
2022-08-10T13:38:14.820Z,0.36
2022-08-10T13:39:05.602Z,0.56
2022-08-10T13:40:12.432Z,0.57
2022-08-10T13:41:06.566Z,0.57
2022-08-10T13:42:15.287Z,0.52
2022-08-10T13:43:14.584Z,0.44
2022-08-10T13:44:12.994Z,0.53
2022-08-10T13:45:15.765Z,0.55
2022-08-10T13:46:24.662Z,0.55
2022-08-10T13:47:11.764Z,0.38
2022-08-10T13:48:12.766Z,0.38
2022-08-10T13:49:16.143Z,0.39
2022-08-10T13:50:07.126Z,0.58
2022-08-10T13:51:13.675Z,1
2022-08-10T13:52:11.393Z,1
2022-08-10T13:53:19.011Z,0.49
2022-08-10T13:54:12.492Z,0.34
2022-08-10T13:55:05.927Z,0.34
2022-08-10T13:56:13.481Z,0.27
2022-08-10T13:57:14.202Z,0.63
2022-08-10T13:58:17.811Z,0.63
2022-08-10T13:59:18.287Z,0.63
2022-08-10T14:00:40.319Z,0.79
2022-08-10T14:01:12.386Z,0.63
2022-08-10T14:02:13.702Z,0.63
2022-08-10T14:03:11.899Z,0.65
2022-08-10T14:04:12.167Z,0.64
2022-08-10T14:05:15.276Z,0.72
2022-08-10T14:06:16.831Z,0.38
2022-08-10T14:07:23.925Z,0.68
2022-08-10T14:08:04.962Z,0.68
2022-08-10T14:09:17.160Z,0.68
2022-08-10T14:10:14.900Z,0.64
2022-08-10T14:11:14.314Z,0.64
2022-08-10T14:12:12.955Z,0.55
2022-08-10T14:13:10.853Z,0.48
2022-08-10T14:14:14.584Z,1.06
2022-08-10T14:15:14.009Z,1.06
2022-08-10T14:16:14.473Z,0.38
2022-08-10T14:17:12.129Z,0.54
2022-08-10T14:18:15.449Z,0.54
2022-08-10T14:19:14.570Z,0.56
2022-08-10T14:20:21.010Z,0.56
2022-08-10T14:21:14.902Z,0.28
2022-08-10T14:22:11.641Z,0.29
2022-08-10T14:23:12.071Z,0.51
2022-08-10T14:24:12.992Z,0.51
2022-08-10T14:25:11.689Z,0.52
2022-08-10T14:26:18.229Z,0.41
2022-08-10T14:27:16.588Z,0.43
2022-08-10T14:28:14.480Z,0.43
2022-08-10T14:29:22.163Z,0.43
2022-08-10T14:30:19.538Z,0.59
2022-08-10T14:31:13.323Z,0.6
2022-08-10T14:32:16.559Z,0.6
2022-08-10T14:33:13.632Z,0.42
2022-08-10T14:34:14.689Z,0.42
2022-08-10T14:36:24.549Z,0.66
2022-08-10T14:36:25.134Z,0.48
2022-08-10T14:37:10.462Z,0.58
2022-08-10T14:38:14.632Z,0.58
2022-08-10T14:39:14.250Z,0.31
2022-08-10T14:40:12.413Z,0.44
2022-08-10T14:41:14.496Z,0.36
2022-08-10T14:42:28.951Z,0.36
2022-08-10T14:43:10.696Z,0.78
2022-08-10T14:44:13.675Z,0.78
2022-08-10T14:45:12.954Z,0.6
2022-08-10T14:46:13.208Z,0.6
2022-08-10T14:48:13.546Z,0.41
2022-08-10T14:49:28.534Z,0.57
2022-08-10T14:50:33.796Z,0.49
2022-08-10T14:51:17.914Z,0.49
2022-08-10T14:52:11.100Z,0.84
2022-08-10T14:53:12.773Z,0.84
2022-08-10T14:54:12.519Z,0.66
2022-08-10T14:55:21.998Z,0.57
2022-08-10T14:56:15.552Z,0.54
2022-08-10T14:57:17.917Z,0.54
2022-08-10T14:58:21.919Z,0.53
2022-08-10T14:59:11.635Z,0.53
2022-08-10T15:00:39.136Z,0.74
2022-08-10T15:01:13.578Z,0.69
2022-08-10T15:02:52.812Z,0.69
2022-08-10T15:04:04.650Z,0.52
2022-08-10T15:04:11.887Z,0.52
2022-08-10T15:05:15.235Z,0.41
2022-08-10T15:06:20.178Z,0.45
2022-08-10T15:07:14.042Z,0.45
2022-08-10T15:08:18.592Z,0.57
2022-08-10T15:09:21.942Z,0.47
2022-08-10T15:10:06.659Z,0.47
2022-08-10T15:12:17.843Z,0.36
2022-08-10T15:12:21.943Z,0.56
2022-08-10T15:13:35.753Z,0.36
2022-08-10T15:14:44.974Z,0.7
2022-08-10T15:15:16.642Z,0.7
2022-08-10T15:16:15.467Z,0.44
2022-08-10T15:17:10.775Z,0.55
2022-08-10T15:18:16.361Z,0.79
2022-08-10T15:20:14.053Z,0.64
2022-08-10T15:20:19.625Z,0.64
2022-08-10T15:21:20.472Z,0.42
2022-08-10T15:22:38.975Z,0.42
2022-08-10T15:23:35.606Z,0.55
2022-08-10T15:24:12.438Z,0.55
2022-08-10T15:25:26.393Z,0.65
2022-08-10T15:26:13.610Z,0.56
2022-08-10T15:27:10.809Z,0.6
2022-08-10T15:28:18.810Z,0.6
2022-08-10T15:29:27.226Z,0.49
2022-08-10T15:30:13.706Z,0.77
2022-08-10T15:31:11.819Z,0.77
2022-08-10T15:32:18.046Z,0.68
2022-08-10T15:33:15.116Z,0.68
2022-08-10T15:34:14.233Z,0.62
2022-08-10T15:35:12.170Z,0.49
2022-08-10T15:36:11.684Z,0.81
2022-08-10T15:37:54.289Z,0.55
2022-08-10T15:38:18.443Z,0.55
2022-08-10T15:40:30.909Z,0.68
2022-08-10T15:40:30.953Z,0.68
2022-08-10T15:41:18.515Z,0.84
2022-08-10T15:42:17.450Z,0.7
2022-08-10T15:43:26.969Z,0.88
2022-08-10T15:44:15.671Z,0.82
2022-08-10T15:45:13.338Z,0.62
2022-08-10T15:46:17.784Z,0.64
2022-08-10T15:47:09.461Z,0.64
2022-08-10T15:48:14.338Z,0.73
2022-08-10T15:49:16.864Z,0.66
2022-08-10T15:53:02.974Z,0.39
2022-08-10T15:53:18.269Z,0.39
2022-08-10T15:54:14.257Z,0.55
2022-08-10T15:55:45.291Z,0.55
2022-08-10T15:56:14.719Z,0.41
2022-08-10T15:57:12.959Z,0.41
2022-08-10T15:58:14.835Z,0.35
2022-08-10T15:59:11.193Z,0.62
2022-08-10T16:00:13.953Z,0.54
2022-08-10T16:02:17.794Z,0.45
2022-08-10T16:02:19.003Z,0.56
2022-08-10T16:03:15.304Z,0.52
2022-08-10T16:04:11.286Z,0.53
2022-08-10T16:05:12.912Z,0.53
2022-08-10T16:06:14.804Z,0.88
2022-08-10T16:07:12.686Z,0.88
2022-08-10T16:08:13.152Z,1.43
2022-08-10T16:10:28.549Z,1.05
2022-08-10T16:10:30.761Z,0.64
2022-08-10T16:11:15.100Z,0.37
2022-08-10T16:12:16.087Z,0.37
2022-08-10T16:14:02.594Z,0.51
2022-08-10T16:14:13.786Z,0.51
2022-08-10T16:15:12.940Z,0.68
2022-08-10T16:16:14.344Z,0.55
2022-08-10T16:17:10.912Z,0.71
2022-08-10T16:18:15.853Z,0.55
2022-08-10T16:19:26.272Z,0.8
2022-08-10T16:20:10.663Z,0.8
2022-08-10T16:21:14.951Z,1.05
2022-08-10T16:22:37.723Z,0.49
2022-08-10T16:23:11.552Z,0.49
2022-08-10T16:24:17.338Z,0.9
2022-08-10T16:25:11.432Z,0.9
2022-08-10T16:26:19.851Z,0.48
2022-08-10T16:27:14.942Z,0.48
2022-08-10T16:28:25.738Z,0.85
2022-08-10T16:29:10.665Z,1.14
2022-08-10T16:30:15.545Z,1.14
2022-08-10T16:31:13.383Z,1.45
2022-08-10T16:32:12.933Z,1.45
2022-08-10T16:33:11.867Z,1.19
2022-08-10T16:34:11.650Z,2.11
2022-08-10T16:35:13.271Z,1.06
2022-08-10T16:36:15.107Z,1.06
2022-08-10T16:37:11.345Z,0.48
2022-08-10T16:38:15.572Z,0.48
2022-08-10T16:40:00.946Z,0.78
2022-08-10T16:40:14.702Z,0.78
2022-08-10T16:42:06.312Z,0.98
2022-08-10T16:42:13.413Z,0.98
2022-08-10T16:43:10.536Z,0.62
2022-08-10T16:44:14.968Z,0.62
2022-08-10T16:45:10.709Z,0.62
2022-08-10T16:46:13.434Z,0.71
2022-08-10T16:47:11.971Z,0.63
2022-08-10T16:48:11.922Z,0.63
2022-08-10T16:49:08.662Z,0.81
2022-08-10T16:50:11.143Z,0.56
2022-08-10T16:51:17.531Z,0.56
2022-08-10T16:52:11.680Z,0.68
2022-08-10T16:53:08.531Z,0.68
2022-08-10T16:54:12.818Z,0.54